createdAt,value
2023-05-16T00:02:25.912Z,57.91
2023-05-16T00:04:58.871Z,58.35
2023-05-16T00:07:33.743Z,57.86
2023-05-16T00:10:07.833Z,57.89
2023-05-16T00:12:41.752Z,58.24
2023-05-16T00:15:14.613Z,58.04
2023-05-16T00:17:47.508Z,58.43
2023-05-16T00:20:23.566Z,58.05
2023-05-16T00:23:00.991Z,58.22
2023-05-16T00:25:33.914Z,58.13
2023-05-16T00:28:06.728Z,57.98
2023-05-16T00:30:39.686Z,58.45
2023-05-16T00:33:12.497Z,58.38
2023-05-16T00:35:45.393Z,58.47
2023-05-16T00:38:21.001Z,58.19
2023-05-16T00:40:55.195Z,58.58
2023-05-16T00:43:28.129Z,58.16
2023-05-16T00:46:01.991Z,58.16
2023-05-16T00:48:35.263Z,58.58
2023-05-16T00:51:09.520Z,58.59
2023-05-16T00:53:44.238Z,58.59
2023-05-16T00:56:18.668Z,58.55
2023-05-16T00:58:52.486Z,58.46
2023-05-16T01:01:27.562Z,58.32
2023-05-16T01:04:04.449Z,58.42
2023-05-16T01:06:37.665Z,58.20
2023-05-16T01:09:14.742Z,58.35
2023-05-16T01:11:54.869Z,58.32
2023-05-16T01:14:39.876Z,58.20
2023-05-16T01:17:21.782Z,58.70
2023-05-16T01:20:12.196Z,58.55
2023-05-16T01:23:00.204Z,58.37
2023-05-16T01:25:46.938Z,58.33
2023-05-16T01:28:21.566Z,57.97
2023-05-16T01:30:56.059Z,58.37
2023-05-16T01:33:29.317Z,58.44
2023-05-16T01:36:05.160Z,58.54
2023-05-16T01:38:43.449Z,58.64
2023-05-16T01:41:22.546Z,58.75
2023-05-16T01:44:02.571Z,58.54
2023-05-16T01:46:41.936Z,58.65
2023-05-16T01:49:21.138Z,58.65
2023-05-16T01:52:01.296Z,58.66
2023-05-16T01:54:37.271Z,58.34
2023-05-16T01:57:11.179Z,58.33
2023-05-16T02:05:48.024Z,58.62
2023-05-16T02:11:22.315Z,58.27
2023-05-16T02:13:55.226Z,58.08
2023-05-16T02:16:28.237Z,58.30
2023-05-16T02:19:01.177Z,58.44
2023-05-16T02:21:35.438Z,58.47
2023-05-16T02:24:08.411Z,58.54
2023-05-16T02:26:41.176Z,58.56
2023-05-16T02:29:15.091Z,58.75
2023-05-16T02:31:48.581Z,58.74
2023-05-16T02:37:16.256Z,58.62
2023-05-16T02:39:50.512Z,58.74
2023-05-16T02:42:25.595Z,58.68
2023-05-16T02:45:00.263Z,58.46
2023-05-16T02:47:33.378Z,58.68
2023-05-16T02:50:07.675Z,58.36
2023-05-16T02:52:42.411Z,58.67
2023-05-16T02:57:51.873Z,58.37
2023-05-16T03:00:25.045Z,58.37
2023-05-16T03:02:58.195Z,58.42
2023-05-16T03:05:32.203Z,58.24
2023-05-16T03:14:22.948Z,58.52
2023-05-16T03:16:55.744Z,58.33
2023-05-16T03:19:28.478Z,58.37
2023-05-16T03:22:01.187Z,58.50
2023-05-16T03:24:34.205Z,58.16
2023-05-16T03:27:06.950Z,58.32
2023-05-16T03:29:41.922Z,58.28
2023-05-16T03:32:14.900Z,58.49
2023-05-16T03:34:48.077Z,58.65
2023-05-16T03:37:20.807Z,58.29
2023-05-16T03:39:53.861Z,58.60
2023-05-16T03:42:26.469Z,58.19
2023-05-16T03:45:01.099Z,58.51
2023-05-16T03:47:34.098Z,58.59
2023-05-16T03:50:08.525Z,58.41
2023-05-16T03:52:41.454Z,58.37
2023-05-16T03:55:15.381Z,58.48
2023-05-16T03:57:50.070Z,58.44
2023-05-16T04:00:24.696Z,58.71
2023-05-16T04:02:57.820Z,58.73
2023-05-16T04:05:31.515Z,58.44
2023-05-16T04:08:04.756Z,58.29
2023-05-16T04:10:40.187Z,58.33
2023-05-16T04:13:13.101Z,58.67
2023-05-16T04:15:47.985Z,58.27
2023-05-16T04:18:20.871Z,58.27
2023-05-16T04:20:55.209Z,58.23
2023-05-16T04:23:28.199Z,58.44
2023-05-16T04:26:02.010Z,58.58
2023-05-16T04:28:35.137Z,58.59
2023-05-16T04:31:09.435Z,58.42
2023-05-16T04:33:42.253Z,58.48
2023-05-16T04:36:15.236Z,58.49
2023-05-16T04:38:47.968Z,58.59
2023-05-16T04:41:20.700Z,58.32
2023-05-16T04:43:56.550Z,58.39
2023-05-16T04:46:30.826Z,58.45
2023-05-16T04:49:03.815Z,58.22
2023-05-16T04:51:36.750Z,58.58
2023-05-16T04:54:10.976Z,58.40
2023-05-16T04:56:44.131Z,58.26
2023-05-16T04:59:16.893Z,58.44
2023-05-16T05:01:51.176Z,58.58
2023-05-16T05:04:24.590Z,58.44
2023-05-16T05:06:57.918Z,58.43
2023-05-16T05:09:30.831Z,58.25
2023-05-16T05:12:03.407Z,58.34
2023-05-16T05:14:36.311Z,58.44
2023-05-16T05:17:10.457Z,58.63
2023-05-16T05:19:43.329Z,58.26
2023-05-16T05:22:16.310Z,58.32
2023-05-16T05:24:49.430Z,58.43
2023-05-16T05:27:22.076Z,58.33
2023-05-16T05:29:55.040Z,58.69
2023-05-16T05:32:29.169Z,58.47
2023-05-16T05:35:01.938Z,58.08
2023-05-16T05:37:34.762Z,58.20
2023-05-16T05:40:08.903Z,58.51
2023-05-16T05:42:46.769Z,58.55
2023-05-16T05:45:20.038Z,58.23
2023-05-16T05:47:54.877Z,58.36
2023-05-16T05:50:27.929Z,58.56
2023-05-16T05:53:01.137Z,58.26
2023-05-16T05:55:34.054Z,58.29
2023-05-16T05:58:07.414Z,58.01
2023-05-16T06:00:40.480Z,58.46
2023-05-16T06:03:17.122Z,58.47
2023-05-16T06:05:50.418Z,58.39
2023-05-16T06:08:23.506Z,58.09
2023-05-16T06:10:56.641Z,58.33
2023-05-16T06:13:30.872Z,58.40
2023-05-16T06:16:08.864Z,58.21
2023-05-16T06:18:44.316Z,57.83
2023-05-16T06:21:17.501Z,58.30
2023-05-16T06:23:50.706Z,58.36
2023-05-16T06:26:24.610Z,58.02
2023-05-16T06:28:57.420Z,57.71
2023-05-16T06:31:31.237Z,57.71
2023-05-16T06:34:05.394Z,58.38
2023-05-16T06:36:38.176Z,58.08
2023-05-16T06:39:11.142Z,56.97
2023-05-16T06:41:43.806Z,57.93
2023-05-16T06:44:21.814Z,57.45
2023-05-16T06:46:54.597Z,57.13
2023-05-16T06:49:29.092Z,56.88
2023-05-16T06:52:02.200Z,57.57
2023-05-16T06:54:35.561Z,56.92
2023-05-16T06:57:08.776Z,57.07
2023-05-16T06:59:44.423Z,56.50
2023-05-16T07:02:17.253Z,58.11
2023-05-16T07:04:51.569Z,56.45
2023-05-16T07:07:27.062Z,57.10
2023-05-16T07:10:00.168Z,57.79
2023-05-16T07:12:33.448Z,57.02
2023-05-16T07:15:07.678Z,56.84
2023-05-16T07:17:40.760Z,55.99
2023-05-16T07:20:15.015Z,57.70
2023-05-16T07:22:47.832Z,56.10
2023-05-16T07:25:20.776Z,57.36
2023-05-16T07:27:55.176Z,56.21
2023-05-16T07:30:28.436Z,58.06
2023-05-16T07:33:01.205Z,57.80
2023-05-16T07:35:35.504Z,57.13
2023-05-16T07:38:08.383Z,58.63
2023-05-16T07:40:41.113Z,55.43
2023-05-16T07:43:14.150Z,56.27
2023-05-16T07:45:47.265Z,55.46
2023-05-16T07:48:20.162Z,56.60
2023-05-16T07:50:55.835Z,55.42
2023-05-16T07:53:28.678Z,57.01
2023-05-16T07:56:01.611Z,56.47
2023-05-16T07:58:34.478Z,56.20
2023-05-16T08:01:07.408Z,55.09
2023-05-16T08:03:40.151Z,58.16
2023-05-16T08:06:16.230Z,55.44
2023-05-16T08:08:49.161Z,56.58
2023-05-16T08:11:22.664Z,56.70
2023-05-16T08:13:55.384Z,57.32
2023-05-16T08:16:28.387Z,55.60
2023-05-16T08:19:01.291Z,58.34
2023-05-16T08:21:35.832Z,54.64
2023-05-16T08:24:11.201Z,57.51
2023-05-16T08:26:51.459Z,54.50
2023-05-16T08:29:32.716Z,57.24
2023-05-16T08:32:07.009Z,57.31
2023-05-16T08:34:39.995Z,55.63
2023-05-16T08:37:16.609Z,55.60
2023-05-16T08:39:50.284Z,55.37
2023-05-16T08:42:23.241Z,56.30
2023-05-16T08:44:56.071Z,55.64
2023-05-16T08:47:34.019Z,54.52
2023-05-16T08:50:10.529Z,56.29
2023-05-16T08:52:47.876Z,54.93
2023-05-16T08:55:22.284Z,54.62
2023-05-16T08:57:55.896Z,55.06
2023-05-16T09:00:29.844Z,54.42
2023-05-16T09:03:04.124Z,55.99
2023-05-16T09:05:37.287Z,52.98
2023-05-16T09:08:11.928Z,52.44
2023-05-16T09:10:44.949Z,55.21
2023-05-16T09:13:17.987Z,55.60
2023-05-16T09:16:14.747Z,53.44
2023-05-16T09:18:58.291Z,57.71
2023-05-16T09:21:32.441Z,55.69
2023-05-16T09:24:08.797Z,52.67
2023-05-16T09:26:41.615Z,53.14
2023-05-16T09:29:15.451Z,51.27
2023-05-16T09:31:50.951Z,55.32
2023-05-16T09:34:24.030Z,52.34
2023-05-16T09:36:56.776Z,53.84
2023-05-16T09:39:30.998Z,51.95
2023-05-16T09:42:06.413Z,52.97
2023-05-16T09:44:39.541Z,53.63
2023-05-16T09:47:16.052Z,54.12
2023-05-16T09:49:53.500Z,55.00
2023-05-16T09:52:28.545Z,49.40
2023-05-16T09:55:06.841Z,49.18
2023-05-16T09:57:40.894Z,54.22
2023-05-16T10:00:16.925Z,48.99
2023-05-16T10:02:54.662Z,52.09
2023-05-16T10:05:29.086Z,52.23
2023-05-16T10:08:04.088Z,49.86
2023-05-16T10:10:39.668Z,49.75
2023-05-16T10:13:13.907Z,49.72
2023-05-16T10:15:50.780Z,49.06
2023-05-16T10:18:26.442Z,51.73
2023-05-16T10:21:04.152Z,47.09
2023-05-16T10:23:39.351Z,46.95
2023-05-16T10:26:17.317Z,48.34
2023-05-16T10:28:54.391Z,51.86
2023-05-16T10:31:27.723Z,52.11
2023-05-16T10:34:01.390Z,47.38
2023-05-16T10:36:38.363Z,47.45
2023-05-16T10:39:15.312Z,46.45
2023-05-16T10:41:50.138Z,48.97
2023-05-16T10:44:23.051Z,48.18
2023-05-16T10:46:59.909Z,45.35
2023-05-16T10:49:33.173Z,47.56
2023-05-16T10:52:09.453Z,51.74
2023-05-16T10:54:43.462Z,43.68
2023-05-16T10:57:20.995Z,46.97
2023-05-16T10:59:56.647Z,41.97
2023-05-16T11:02:33.863Z,42.11
2023-05-16T11:05:09.580Z,43.56
2023-05-16T11:07:42.997Z,41.78
2023-05-16T11:10:17.664Z,40.46
2023-05-16T11:12:55.210Z,38.41
2023-05-16T11:15:32.458Z,38.88
2023-05-16T11:18:07.825Z,39.56
2023-05-16T11:20:41.509Z,37.62
2023-05-16T11:23:27.548Z,39.28
2023-05-16T11:26:01.408Z,41.67
2023-05-16T11:28:35.895Z,41.42
2023-05-16T11:31:10.326Z,43.90
2023-05-16T11:33:43.360Z,38.18
2023-05-16T11:36:16.804Z,39.65
2023-05-16T11:38:50.385Z,40.53
2023-05-16T11:41:24.518Z,38.92
2023-05-16T11:43:58.779Z,37.79
2023-05-16T11:46:31.808Z,42.07
2023-05-16T11:49:05.216Z,36.73
2023-05-16T11:51:39.511Z,36.20
2023-05-16T11:54:13.025Z,38.46
2023-05-16T11:56:48.394Z,37.01
2023-05-16T11:59:23.065Z,38.11
2023-05-16T12:01:55.957Z,35.79
2023-05-16T12:04:29.304Z,41.14
2023-05-16T12:07:02.931Z,37.71
2023-05-16T12:09:38.888Z,37.47
2023-05-16T12:12:12.254Z,36.66
2023-05-16T12:14:46.786Z,34.73
2023-05-16T12:17:22.309Z,33.04
2023-05-16T12:19:58.129Z,38.88
2023-05-16T12:22:31.428Z,34.75
2023-05-16T12:25:22.703Z,34.51
2023-05-16T12:27:56.494Z,38.69
2023-05-16T12:30:35.654Z,32.21
2023-05-16T12:33:11.159Z,36.86
2023-05-16T12:35:45.712Z,38.96
2023-05-16T12:38:20.243Z,36.75
2023-05-16T12:40:59.521Z,33.78
2023-05-16T12:43:32.593Z,33.24
2023-05-16T12:46:12.646Z,31.33
2023-05-16T12:48:47.269Z,36.25
2023-05-16T12:51:21.106Z,31.39
2023-05-16T12:54:08.966Z,32.86
2023-05-16T12:56:46.227Z,35.47
2023-05-16T12:59:20.036Z,36.21
2023-05-16T13:01:54.348Z,36.71
2023-05-16T13:04:27.186Z,36.85
2023-05-16T13:07:00.145Z,34.43
2023-05-16T13:09:33.264Z,34.82
2023-05-16T13:12:07.456Z,34.41
2023-05-16T13:14:42.445Z,35.50
2023-05-16T13:17:18.038Z,31.69
2023-05-16T13:19:51.503Z,36.88
2023-05-16T13:22:24.623Z,36.36
2023-05-16T13:24:57.470Z,32.88
2023-05-16T13:27:30.190Z,34.36
2023-05-16T13:30:04.156Z,38.61
2023-05-16T13:32:38.554Z,36.63
2023-05-16T13:35:11.409Z,32.55
2023-05-16T13:37:44.464Z,36.03
2023-05-16T13:40:17.471Z,37.78
2023-05-16T13:42:51.702Z,33.08
2023-05-16T13:45:24.898Z,33.72
2023-05-16T13:47:59.475Z,31.75
2023-05-16T13:50:33.801Z,34.19
2023-05-16T13:53:07.683Z,33.68
2023-05-16T13:55:40.594Z,35.39
2023-05-16T13:58:13.779Z,34.41
2023-05-16T14:00:47.733Z,32.78
2023-05-16T14:03:23.313Z,33.46
2023-05-16T14:05:56.277Z,35.79
2023-05-16T14:08:29.227Z,35.26
2023-05-16T14:11:02.024Z,34.70
2023-05-16T14:13:34.673Z,30.36
2023-05-16T14:16:07.820Z,32.04
2023-05-16T14:18:41.957Z,34.64
2023-05-16T14:21:14.898Z,33.46
2023-05-16T14:23:48.289Z,36.03
2023-05-16T14:26:22.749Z,30.98
2023-05-16T14:28:57.203Z,36.05
2023-05-16T14:31:30.452Z,35.00
2023-05-16T14:34:05.242Z,36.42
2023-05-16T14:36:38.119Z,37.20
2023-05-16T14:39:12.176Z,34.27
2023-05-16T14:41:45.019Z,33.16
2023-05-16T14:44:18.351Z,36.22
2023-05-16T14:46:52.138Z,36.20
2023-05-16T14:49:27.081Z,34.93
2023-05-16T14:52:00.151Z,34.54
2023-05-16T14:54:33.152Z,37.28
2023-05-16T14:57:07.395Z,35.68
2023-05-16T14:59:40.309Z,35.64
2023-05-16T15:02:13.524Z,36.91
2023-05-16T15:04:49.080Z,35.07
2023-05-16T15:07:22.302Z,36.38
2023-05-16T15:09:55.228Z,36.11
2023-05-16T15:12:28.088Z,34.80
2023-05-16T15:15:01.098Z,36.36
2023-05-16T15:17:33.998Z,36.87
2023-05-16T15:20:11.049Z,35.20
2023-05-16T15:22:44.074Z,35.69
2023-05-16T15:25:16.939Z,36.30
2023-05-16T15:27:49.727Z,35.40
2023-05-16T15:30:38.442Z,35.44
2023-05-16T15:33:11.558Z,36.89
2023-05-16T15:35:48.458Z,37.15
2023-05-16T15:38:21.893Z,37.21
2023-05-16T15:41:09.655Z,35.75
2023-05-16T15:43:47.855Z,37.22
2023-05-16T15:46:21.423Z,37.42
2023-05-16T15:48:54.413Z,36.69
2023-05-16T15:51:28.757Z,37.47
2023-05-16T15:54:01.703Z,36.62
2023-05-16T15:56:34.611Z,37.78
2023-05-16T15:59:12.149Z,36.88
2023-05-16T16:01:48.354Z,37.38
2023-05-16T16:04:23.346Z,37.53
2023-05-16T16:06:58.243Z,37.37
2023-05-16T16:09:31.187Z,37.45
2023-05-16T16:12:04.178Z,37.50
2023-05-16T16:14:37.030Z,37.47
2023-05-16T16:17:09.711Z,37.79
2023-05-16T16:19:42.826Z,37.06
2023-05-16T16:22:17.066Z,37.42
2023-05-16T16:24:49.938Z,37.49
2023-05-16T16:27:22.611Z,37.95
2023-05-16T16:29:55.488Z,37.66
2023-05-16T16:32:28.172Z,38.02
2023-05-16T16:35:01.765Z,38.19
2023-05-16T16:37:36.816Z,38.48
2023-05-16T16:40:10.938Z,38.73
2023-05-16T16:42:43.901Z,39.04
2023-05-16T16:45:16.782Z,38.12
2023-05-16T16:47:49.677Z,38.66
2023-05-16T16:50:22.897Z,38.75
2023-05-16T16:52:59.231Z,38.93
2023-05-16T16:55:32.167Z,38.71
2023-05-16T16:58:05.060Z,38.90
2023-05-16T17:00:38.822Z,39.26
2023-05-16T17:03:11.867Z,39.22
2023-05-16T17:05:45.170Z,39.04
2023-05-16T17:08:19.913Z,39.05
2023-05-16T17:10:53.266Z,39.05
2023-05-16T17:13:26.685Z,39.10
2023-05-16T17:15:59.776Z,39.06
2023-05-16T17:18:34.817Z,39.39
2023-05-16T17:21:09.352Z,39.11
2023-05-16T17:23:44.406Z,39.55
2023-05-16T17:26:17.783Z,39.88
2023-05-16T17:28:53.802Z,39.83
2023-05-16T17:31:26.797Z,40.04
2023-05-16T17:33:59.878Z,39.94
2023-05-16T17:36:32.995Z,40.29
2023-05-16T17:39:08.345Z,40.31
2023-05-16T17:41:41.452Z,40.40
2023-05-16T17:44:14.455Z,40.50
2023-05-16T17:46:47.408Z,40.58
2023-05-16T17:49:21.703Z,40.70
2023-05-16T17:51:56.466Z,41.01
2023-05-16T17:54:32.220Z,41.18
2023-05-16T17:57:06.906Z,41.34
2023-05-16T17:59:40.464Z,41.60
2023-05-16T18:02:15.559Z,41.75
2023-05-16T18:04:48.660Z,41.85
2023-05-16T18:07:21.559Z,42.17
2023-05-16T18:09:55.644Z,41.98
2023-05-16T18:12:28.788Z,42.09
2023-05-16T18:15:02.065Z,42.41
2023-05-16T18:17:35.659Z,42.58
2023-05-16T18:20:12.287Z,42.31
2023-05-16T18:22:50.583Z,42.81
2023-05-16T18:25:26.354Z,42.95
2023-05-16T18:27:59.492Z,43.12
2023-05-16T18:30:32.200Z,42.98
2023-05-16T18:33:06.547Z,43.24
2023-05-16T18:35:39.880Z,43.25
2023-05-16T18:38:28.278Z,43.00
2023-05-16T18:41:07.378Z,43.66
2023-05-16T18:43:40.367Z,43.64
2023-05-16T19:05:09.660Z,44.06
2023-05-16T19:07:42.836Z,44.35
2023-05-16T19:10:15.650Z,44.38
2023-05-16T19:12:49.200Z,44.60
2023-05-16T19:15:22.135Z,44.55
2023-05-16T19:17:55.193Z,44.35
2023-05-16T19:20:29.929Z,44.66
2023-05-16T19:23:03.579Z,44.53
2023-05-16T19:25:47.194Z,44.79
2023-05-16T19:28:21.325Z,44.83
2023-05-16T19:30:54.458Z,44.84
2023-05-16T19:33:27.453Z,44.88
2023-05-16T19:36:03.165Z,44.96
2023-05-16T19:38:36.166Z,45.19
2023-05-16T19:41:08.789Z,45.14
2023-05-16T19:49:43.498Z,45.68
2023-05-16T19:52:17.733Z,45.57
2023-05-16T19:54:53.949Z,45.70
2023-05-16T19:57:27.120Z,46.05
2023-05-16T20:00:00.160Z,46.00
2023-05-16T20:02:33.233Z,46.13
2023-05-16T20:05:07.221Z,46.20
2023-05-16T20:07:41.785Z,46.24
2023-05-16T20:10:16.631Z,46.28
2023-05-16T20:12:49.634Z,46.48
2023-05-16T20:15:22.558Z,46.51
2023-05-16T20:17:55.700Z,46.75
2023-05-16T20:20:30.041Z,46.69
2023-05-16T20:23:04.183Z,47.02
2023-05-16T20:25:37.479Z,46.79
2023-05-16T20:28:10.318Z,46.80
2023-05-16T20:30:43.191Z,47.11
2023-05-16T20:33:18.468Z,47.39
2023-05-16T20:35:51.457Z,47.35
2023-05-16T20:38:25.703Z,47.26
2023-05-16T20:40:58.664Z,47.32
2023-05-16T20:43:31.388Z,47.46
2023-05-16T20:46:04.528Z,47.85
2023-05-16T20:48:37.450Z,47.60
2023-05-16T20:51:10.330Z,47.80
2023-05-16T20:53:44.536Z,47.78
2023-05-16T20:56:17.496Z,48.15
2023-05-16T20:58:50.157Z,47.87
2023-05-16T21:01:26.075Z,48.01
2023-05-16T21:03:58.970Z,48.26
2023-05-16T21:06:31.886Z,48.46
2023-05-16T21:09:06.339Z,48.92
2023-05-16T21:11:39.346Z,48.77
2023-05-16T21:14:11.955Z,48.82
2023-05-16T21:16:44.940Z,49.02
2023-05-16T21:19:17.745Z,49.17
2023-05-16T21:21:50.667Z,49.12
2023-05-16T21:24:24.878Z,49.12
2023-05-16T21:26:57.831Z,49.13
2023-05-16T21:29:30.493Z,49.28
2023-05-16T21:32:03.742Z,49.44
2023-05-16T21:34:36.635Z,49.41
2023-05-16T21:37:11.690Z,49.35
2023-05-16T21:39:45.909Z,49.72
2023-05-16T21:42:18.719Z,49.55
2023-05-16T21:44:52.502Z,49.63
2023-05-16T21:47:26.240Z,49.71
2023-05-16T21:49:59.253Z,49.79
2023-05-16T21:52:32.434Z,49.97
2023-05-16T21:55:07.972Z,49.90
2023-05-16T21:57:41.037Z,49.98
2023-05-16T22:00:15.173Z,50.07
2023-05-16T22:02:48.577Z,50.39
2023-05-16T22:05:21.576Z,50.22
2023-05-16T22:07:54.385Z,50.20
2023-05-16T22:10:28.594Z,50.43
2023-05-16T22:13:01.388Z,50.32
2023-05-16T22:15:34.385Z,50.60
2023-05-16T22:18:09.897Z,50.47
2023-05-16T22:20:42.771Z,50.61
2023-05-16T22:23:16.074Z,50.34
2023-05-16T22:25:50.285Z,50.68
2023-05-16T22:28:23.124Z,50.89
2023-05-16T22:30:56.613Z,50.79
2023-05-16T22:33:31.211Z,50.68
2023-05-16T22:36:05.006Z,50.80
2023-05-16T22:38:46.277Z,50.84
2023-05-16T22:41:23.147Z,50.87
2023-05-16T22:43:59.277Z,51.00
2023-05-16T22:46:33.058Z,51.28
2023-05-16T22:49:08.473Z,51.25
2023-05-16T22:51:41.490Z,51.36
2023-05-16T22:54:18.135Z,50.77
2023-05-16T22:56:52.606Z,51.31
2023-05-16T22:59:26.586Z,51.33
2023-05-16T23:02:02.224Z,51.35
2023-05-16T23:04:35.181Z,51.34
2023-05-16T23:07:09.429Z,51.46
2023-05-16T23:09:44.983Z,51.61
2023-05-16T23:12:21.210Z,51.52
2023-05-16T23:18:01.819Z,51.54
2023-05-16T23:20:34.810Z,51.53
2023-05-16T23:23:07.650Z,52.02
2023-05-16T23:25:40.469Z,51.98
2023-05-16T23:28:15.020Z,51.80
2023-05-16T23:30:47.751Z,52.17
2023-05-16T23:33:20.512Z,51.76
2023-05-16T23:35:53.335Z,51.89
2023-05-16T23:38:27.401Z,51.83
2023-05-16T23:41:02.492Z,52.01
2023-05-16T23:43:36.928Z,51.94
2023-05-16T23:46:09.687Z,52.06
2023-05-16T23:48:42.522Z,51.90
2023-05-16T23:51:15.272Z,52.23
2023-05-16T23:53:48.057Z,52.18
2023-05-16T23:56:20.772Z,52.22
2023-05-16T23:58:55.121Z,52.21
